Impacts TAF Board INFO
FOR SITUATIONAL AWARENESS. NOT TO BE USED FOR FLIGHT PLANNING PURPOSES.
IDs:

KSAN - San Diego Intl Arpt, CA, US

Issued at 0520 UTC 23 Jan 2018
Updated at 1020 UTC 23 Jan 2018
Potential Impact None Slight Moderate High
Time<<24/11Z 24/12Z 24/13Z 24/14Z 24/15Z 24/16Z 24/17Z 24/18Z 24/19Z 24/20Z 24/21Z 24/22Z 24/23Z
Type PRVL
VIS >6
CIG --
Cover SKC
FltCat VFR
WX --
WDir VRB
WSpd 3
WGst --

Raw TAF
KSAN 230520Z 2306/2412 VRB03KT P6SM SKC
  FM232000 31009KT P6SM SKC
  FM240100 VRB03KT P6SM SKC


METAR Board
Radar Display
Forecast Discussion

FOR SITUATIONAL AWARENESS. NOT TO BE USED FOR FLIGHT PLANNING PURPOSES.